Time;durP1;ratioP1;P1;durP2;ratioP2;P2;SDS_P1;SDS_P2;PMS_P1;PMS_P2;Temp;Humidity;BMP_temperature;BMP_pressure;BME280_temperature;BME280_humidity;BME280_pressure;Samples;Min_cycle;Max_cycle;Signal;HPM_P1;HPM_P2
2023/07/26 00:01:59;;;;;;;14.70;9.30;;;;;;;28.38;41.84;94019.41;6143221;22;109083;-66
2023/07/26 00:05:02;;;;;;;9.70;8.43;;;;;;;28.36;42.23;94023.25;6094781;28;109211;-66
2023/07/26 00:08:05;;;;;;;9.03;7.70;;;;;;;28.37;41.89;94021.34;6103911;28;110068;-66
2023/07/26 00:11:10;;;;;;;9.50;8.47;;;;;;;28.38;42.36;94016.72;6090875;28;109114;-68
2023/07/26 00:14:13;;;;;;;8.87;7.73;;;;;;;28.38;41.78;94017.50;6103420;28;109307;-67
2023/07/26 00:17:16;;;;;;;10.30;7.40;;;;;;;28.36;42.03;94009.81;6089825;28;109358;-66
2023/07/26 00:20:19;;;;;;;10.07;8.50;;;;;;;28.36;42.32;94004.41;6110270;28;109279;-67
2023/07/26 00:23:22;;;;;;;9.43;8.13;;;;;;;28.36;42.05;94009.03;6109527;28;110214;-66
2023/07/26 00:26:27;;;;;;;9.80;8.30;;;;;;;28.34;41.60;93995.16;6101564;28;110233;-66
2023/07/26 00:29:30;;;;;;;10.13;8.43;;;;;;;28.36;42.38;94003.66;6102067;28;111199;-66
2023/07/26 00:32:33;;;;;;;11.77;8.53;;;;;;;28.36;41.89;94007.09;6109728;28;109582;-66
2023/07/26 00:35:41;;;;;;;10.20;7.97;;;;;;;28.34;42.82;93995.16;6110876;28;109135;-67
2023/07/26 00:38:44;;;;;;;10.23;7.50;;;;;;;28.31;42.70;93988.63;6100012;28;110179;-67
2023/07/26 00:41:49;;;;;;;10.30;8.50;;;;;;;28.34;42.47;93995.16;6099608;28;109252;-66
2023/07/26 00:44:52;;;;;;;9.00;7.33;;;;;;;28.36;42.46;93996.34;6106404;28;110349;-67
2023/07/26 00:47:55;;;;;;;8.97;8.07;;;;;;;28.35;42.15;93997.50;6097774;28;109273;-67
2023/07/26 00:50:59;;;;;;;12.50;8.50;;;;;;;28.32;42.19;93979.41;6108682;28;109220;-66
2023/07/26 00:54:04;;;;;;;8.60;7.20;;;;;;;28.34;42.58;93992.47;6106686;28;110256;-66
2023/07/26 00:57:08;;;;;;;10.00;8.50;;;;;;;28.34;42.88;93984.41;6114818;28;109859;-66
2023/07/26 01:00:12;;;;;;;9.90;8.27;;;;;;;28.38;42.86;93979.06;6120455;28;109140;-66
2023/07/26 01:03:15;;;;;;;13.40;7.20;;;;;;;28.35;42.17;93975.19;6107804;28;110122;-65
2023/07/26 01:06:30;;;;;;;11.13;8.23;;;;;;;28.32;42.01;93975.94;6138058;28;109314;-67
2023/07/26 01:09:43;;;;;;;11.30;8.10;;;;;;;28.36;42.71;93976.72;6122071;28;109275;-66
2023/07/26 01:12:53;;;;;;;9.00;7.80;;;;;;;28.37;42.24;93964.81;6127399;28;109277;-67
2023/07/26 01:15:57;;;;;;;11.80;8.10;;;;;;;28.37;42.36;93978.28;6106532;28;110124;-67
2023/07/26 01:19:01;;;;;;;14.13;8.43;;;;;;;28.34;42.27;93962.88;6127198;28;109224;-67
2023/07/26 01:22:06;;;;;;;11.60;8.50;;;;;;;28.35;42.41;93964.44;6115105;28;109194;-66
2023/07/26 01:25:09;;;;;;;14.50;8.77;;;;;;;28.36;41.95;93961.34;6103329;28;110075;-67
2023/07/26 01:28:12;;;;;;;12.23;7.90;;;;;;;28.35;41.50;93959.03;6109583;28;112008;-66
2023/07/26 01:31:17;;;;;;;9.73;7.47;;;;;;;28.36;42.15;93965.97;6113486;28;110102;-67
2023/07/26 01:34:21;;;;;;;10.77;8.00;;;;;;;28.36;42.05;93957.91;6120562;28;109327;-67
2023/07/26 01:37:25;;;;;;;10.77;8.57;;;;;;;28.38;41.54;93952.91;6103407;28;109193;-67
2023/07/26 01:40:29;;;;;;;8.00;7.20;;;;;;;28.38;41.96;93950.22;6113266;28;109236;-67
2023/07/26 01:43:33;;;;;;;11.47;8.43;;;;;;;28.39;41.35;93948.31;6124167;28;109214;-67
2023/07/26 01:46:36;;;;;;;9.30;7.70;;;;;;;28.39;41.15;93959.84;6113428;28;109860;-67
2023/07/26 01:49:39;;;;;;;11.77;8.00;;;;;;;28.39;41.23;93946.38;6108682;28;109814;-67
2023/07/26 01:52:43;;;;;;;12.17;7.77;;;;;;;28.38;41.38;93947.53;6116367;28;109100;-66
2023/07/26 01:55:46;;;;;;;10.50;8.33;;;;;;;28.40;40.97;93944.50;6127161;28;109161;-67
2023/07/26 01:58:50;;;;;;;11.77;7.73;;;;;;;28.40;40.98;93939.09;6124838;28;110232;-66
2023/07/26 02:01:53;;;;;;;10.23;7.63;;;;;;;28.40;40.87;93947.19;6107341;28;109217;-66
2023/07/26 02:04:56;;;;;;;15.00;7.60;;;;;;;28.38;40.92;93944.84;6113241;28;109179;-67
2023/07/26 02:08:00;;;;;;;9.87;8.00;;;;;;;28.38;41.35;93944.84;6112291;28;109249;-67
2023/07/26 02:11:03;;;;;;;9.87;7.53;;;;;;;28.41;41.10;93935.28;6088676;28;109143;-65
2023/07/26 02:14:07;;;;;;;10.10;8.17;;;;;;;28.40;41.23;93934.50;6115360;28;109204;-68
2023/07/26 02:17:10;;;;;;;10.70;8.40;;;;;;;28.39;41.43;93918.69;6118286;28;109149;-66
2023/07/26 02:20:13;;;;;;;12.10;8.00;;;;;;;28.37;40.88;93919.06;6129489;28;109231;-68
2023/07/26 02:23:17;;;;;;;12.50;8.50;;;;;;;28.24;41.63;93917.84;6111411;28;110268;-66
2023/07/26 02:26:20;;;;;;;19.70;8.00;;;;;;;28.15;42.00;93925.44;6107291;28;110276;-62
2023/07/26 02:29:23;;;;;;;13.67;8.57;;;;;;;28.17;41.94;93928.53;6133434;28;109054;-62
2023/07/26 02:32:29;;;;;;;12.00;7.77;;;;;;;28.26;41.68;93939.75;6121709;28;110175;-63
2023/07/26 02:35:32;;;;;;;12.60;8.17;;;;;;;28.30;41.55;93930.56;6104949;28;110089;-62
2023/07/26 02:38:36;;;;;;;10.80;8.23;;;;;;;28.37;42.01;93937.91;6119122;28;109671;-62
2023/07/26 02:41:39;;;;;;;12.57;8.30;;;;;;;28.38;41.98;93931.38;6123427;28;109432;-62
2023/07/26 02:44:43;;;;;;;14.70;8.60;;;;;;;28.35;41.78;93926.75;6116172;28;109188;-62
2023/07/26 02:47:46;;;;;;;11.13;8.23;;;;;;;28.36;42.17;93918.31;6130017;28;110409;-62
2023/07/26 02:50:49;;;;;;;10.03;8.07;;;;;;;28.38;42.02;93917.94;6119052;28;109182;-62
2023/07/26 02:53:53;;;;;;;16.57;8.67;;;;;;;28.39;42.11;93922.16;6125272;28;109273;-62
2023/07/26 02:56:56;;;;;;;10.37;7.97;;;;;;;28.39;41.98;93930.22;6104640;28;110065;-62
2023/07/26 02:59:59;;;;;;;10.53;7.60;;;;;;;28.40;41.97;93944.50;6112028;28;109271;-62
2023/07/26 03:03:03;;;;;;;10.20;8.50;;;;;;;28.42;41.31;93952.97;6119355;28;109339;-62
2023/07/26 03:06:06;;;;;;;13.10;8.03;;;;;;;28.42;41.38;93955.66;6125073;28;110273;-62
2023/07/26 03:09:10;;;;;;;13.07;8.50;;;;;;;28.41;41.92;93968.34;6119884;28;109888;-62
2023/07/26 03:12:13;;;;;;;10.23;7.43;;;;;;;28.41;41.66;93968.34;6116569;28;110028;-62
2023/07/26 03:15:17;;;;;;;18.30;8.33;;;;;;;28.26;42.02;93967.44;6136066;28;110178;-61
2023/07/26 03:18:20;;;;;;;12.10;8.83;;;;;;;28.09;43.04;93970.75;6133425;28;109482;-62
2023/07/26 03:21:23;;;;;;;11.33;8.03;;;;;;;28.25;43.01;93963.22;6108223;28;109747;-62
2023/07/26 03:24:27;;;;;;;10.40;8.27;;;;;;;28.36;43.65;93960.59;6116390;28;109080;-61
2023/07/26 03:27:30;;;;;;;12.93;8.60;;;;;;;28.40;43.63;93961.41;6117382;28;109559;-62
2023/07/26 03:30:34;;;;;;;12.97;9.23;;;;;;;28.42;44.21;93974.50;6107178;28;109725;-63
2023/07/26 03:33:37;;;;;;;13.30;9.70;;;;;;;28.45;43.86;93971.06;6117254;28;110125;-61
2023/07/26 03:36:41;;;;;;;13.10;9.97;;;;;;;28.45;44.54;93969.13;6116470;28;108770;-63
2023/07/26 03:39:46;;;;;;;10.93;8.97;;;;;;;28.45;43.90;93979.91;6129559;28;109255;-62
2023/07/26 03:42:49;;;;;;;20.20;9.90;;;;;;;28.29;43.77;93977.47;6128911;28;109270;-62
2023/07/26 03:45:52;;;;;;;15.83;9.40;;;;;;;28.12;43.88;93977.31;6116766;28;109137;-62
2023/07/26 03:48:55;;;;;;;13.63;9.43;;;;;;;27.91;44.56;93984.03;6115360;28;109297;-62
2023/07/26 03:51:58;;;;;;;18.00;11.30;;;;;;;28.07;44.52;93996.47;6135848;28;110176;-61
2023/07/26 03:55:03;;;;;;;16.00;10.20;;;;;;;28.04;43.62;93987.97;6113271;28;109278;-62
2023/07/26 03:58:06;;;;;;;27.23;10.70;;;;;;;28.01;44.78;93994.09;6115212;28;109089;-62
2023/07/26 04:01:09;;;;;;;15.07;10.30;;;;;;;28.07;44.28;93996.47;6107325;28;110506;-62
2023/07/26 04:04:12;;;;;;;19.23;10.30;;;;;;;27.98;44.65;94002.13;6112895;28;109187;-61
2023/07/26 04:07:16;;;;;;;20.30;9.47;;;;;;;27.71;46.48;94001.44;6110423;28;109330;-61
2023/07/26 04:10:20;;;;;;;19.33;10.37;;;;;;;27.95;45.83;93997.50;6120283;28;109287;-62
2023/07/26 04:13:23;;;;;;;15.17;9.40;;;;;;;28.00;45.21;93994.47;6121237;28;109196;-61
2023/07/26 04:16:26;;;;;;;15.87;10.67;;;;;;;27.79;45.69;93995.00;6112051;28;109206;-63
2023/07/26 04:19:30;;;;;;;14.73;10.10;;;;;;;27.83;45.49;93998.50;6126261;28;108965;-62
2023/07/26 04:22:33;;;;;;;19.50;10.40;;;;;;;27.99;44.35;93998.31;6118505;28;109321;-61
2023/07/26 04:25:37;;;;;;;23.53;10.40;;;;;;;27.93;43.38;93997.88;6131287;28;109390;-63
2023/07/26 04:28:40;;;;;;;18.03;9.50;;;;;;;27.95;43.17;93995.59;6118446;28;110092;-62
2023/07/26 04:31:43;;;;;;;15.40;9.33;;;;;;;27.99;42.10;93998.31;6114572;28;110284;-62
2023/07/26 04:34:47;;;;;;;11.37;8.83;;;;;;;27.98;42.87;93981.41;6105960;28;109101;-62
2023/07/26 04:37:50;;;;;;;18.33;9.27;;;;;;;28.02;42.42;93984.13;6090926;28;110389;-62
2023/07/26 04:40:55;;;;;;;21.03;10.77;;;;;;;28.10;42.34;93987.66;6120197;28;109536;-62
2023/07/26 04:43:58;;;;;;;14.90;8.93;;;;;;;28.14;42.68;93985.78;6138667;28;109267;-66
2023/07/26 04:47:01;;;;;;;20.37;9.87;;;;;;;28.05;42.59;93994.91;6138382;28;109087;-67
2023/07/26 04:50:04;;;;;;;12.70;9.70;;;;;;;28.13;42.71;93986.91;6129056;28;109121;-66
2023/07/26 04:53:07;;;;;;;15.40;9.67;;;;;;;28.14;42.53;93986.53;6137395;28;110152;-67
2023/07/26 04:56:15;;;;;;;12.73;9.43;;;;;;;28.18;43.14;93995.41;6116551;28;109684;-67
2023/07/26 04:59:18;;;;;;;11.17;9.30;;;;;;;28.19;42.60;93982.72;6120826;28;109057;-68
2023/07/26 05:02:21;;;;;;;18.37;10.40;;;;;;;28.16;43.99;93967.34;6115599;28;110107;-68
2023/07/26 05:05:24;;;;;;;24.13;21.70;;;;;;;28.16;44.63;93970.03;6114025;28;109129;-68
2023/07/26 05:08:28;;;;;;;17.30;13.87;;;;;;;28.17;44.61;93972.34;6113947;28;109130;-68
2023/07/26 05:11:33;;;;;;;16.67;11.60;;;;;;;28.17;44.82;93987.72;6137263;28;109237;-67
2023/07/26 05:14:38;;;;;;;17.30;10.50;;;;;;;28.17;45.87;93971.56;6126350;28;109330;-67
2023/07/26 05:17:41;;;;;;;23.73;11.70;;;;;;;28.14;46.79;93969.63;6137683;28;109125;-66
2023/07/26 05:20:44;;;;;;;20.87;10.80;;;;;;;28.02;46.89;93952.59;6137591;28;109093;-67
2023/07/26 05:23:48;;;;;;;19.77;11.83;;;;;;;27.96;47.79;93961.41;6131332;28;110160;-66
2023/07/26 05:26:52;;;;;;;17.47;11.13;;;;;;;28.10;47.56;93963.44;6107669;28;109793;-67
2023/07/26 05:29:57;;;;;;;20.50;11.17;;;;;;;28.17;46.57;93950.06;6113960;28;108922;-67
2023/07/26 05:33:00;;;;;;;21.80;11.27;;;;;;;28.24;46.63;93955.50;6112836;28;109459;-67
2023/07/26 05:36:03;;;;;;;16.47;10.97;;;;;;;28.24;46.00;93956.28;6120795;28;109133;-68
2023/07/26 05:39:06;;;;;;;15.53;10.33;;;;;;;28.25;45.60;93948.97;6136081;28;109496;-67
2023/07/26 05:42:11;;;;;;;17.23;10.40;;;;;;;28.30;46.42;93978.22;6113445;28;109453;-67
2023/07/26 05:45:14;;;;;;;19.87;10.17;;;;;;;28.28;46.00;93981.28;6124105;28;109110;-68
2023/07/26 05:48:17;;;;;;;18.57;11.17;;;;;;;28.22;46.86;93965.84;6127293;28;108776;-68
2023/07/26 05:51:20;;;;;;;16.20;10.80;;;;;;;28.25;46.83;93971.28;6136801;28;109302;-68
2023/07/26 05:54:23;;;;;;;20.97;11.10;;;;;;;28.27;46.10;93984.34;6136239;28;109236;-63
2023/07/26 05:57:28;;;;;;;12.30;10.20;;;;;;;28.38;46.05;93955.59;6135946;28;109600;-63
2023/07/26 06:00:32;;;;;;;13.53;9.83;;;;;;;28.41;46.37;93941.44;6129480;28;109893;-62
2023/07/26 06:03:35;;;;;;;14.53;10.10;;;;;;;28.47;45.79;93953.41;6116856;28;110043;-63
2023/07/26 06:06:38;;;;;;;11.20;10.00;;;;;;;28.55;45.84;93979.22;6133703;28;109215;-63
2023/07/26 06:09:41;;;;;;;16.37;10.97;;;;;;;28.54;45.94;93980.38;6126456;28;109257;-62
2023/07/26 06:12:46;;;;;;;16.60;10.80;;;;;;;28.53;45.79;93964.59;6136712;28;110166;-62
2023/07/26 06:15:49;;;;;;;16.80;11.33;;;;;;;28.51;46.23;93951.50;6122408;28;109188;-63
2023/07/26 06:18:52;;;;;;;15.87;10.60;;;;;;;28.55;46.16;93956.91;6112885;28;110159;-62
2023/07/26 06:21:56;;;;;;;18.67;10.10;;;;;;;28.53;45.83;93976.13;6102213;28;109844;-62
2023/07/26 06:24:59;;;;;;;15.90;10.67;;;;;;;28.57;46.08;93968.88;6111998;28;109141;-63
2023/07/26 06:28:04;;;;;;;17.17;10.90;;;;;;;28.61;46.13;93950.06;6112323;28;109612;-63
2023/07/26 06:31:07;;;;;;;12.60;9.90;;;;;;;28.75;46.06;93960.16;6128499;28;110399;-63
2023/07/26 06:34:10;;;;;;;14.37;10.37;;;;;;;28.89;45.56;93954.81;6102117;28;110291;-62
2023/07/26 06:37:13;;;;;;;14.30;9.67;;;;;;;28.91;45.45;93953.31;6112116;28;111012;-63
2023/07/26 06:40:17;;;;;;;16.30;11.10;;;;;;;28.85;44.81;93960.19;6112002;28;109832;-64
2023/07/26 06:43:21;;;;;;;14.30;10.20;;;;;;;28.87;44.67;93951.75;6108261;28;109267;-63
2023/07/26 06:46:24;;;;;;;16.77;11.67;;;;;;;29.12;44.64;93968.84;6124275;28;109182;-63
2023/07/26 06:49:28;;;;;;;15.13;10.70;;;;;;;29.10;44.66;93944.22;6135776;28;109149;-63
2023/07/26 06:52:31;;;;;;;21.83;11.47;;;;;;;29.16;44.86;93968.88;6135942;28;109130;-63
2023/07/26 06:55:34;;;;;;;15.50;9.83;;;;;;;29.34;43.49;93974.34;6125012;28;109280;-62
2023/07/26 06:58:39;;;;;;;12.00;10.17;;;;;;;29.33;43.28;93973.56;6136364;28;110218;-62
2023/07/26 07:01:45;;;;;;;14.60;9.53;;;;;;;29.48;43.40;93977.88;6116521;28;109214;-62
2023/07/26 07:04:48;;;;;;;17.63;11.17;;;;;;;29.61;41.54;93966.75;6111836;28;109178;-67
2023/07/26 07:07:51;;;;;;;18.17;10.23;;;;;;;29.69;38.66;93957.56;6101193;28;109275;-68
2023/07/26 07:10:54;;;;;;;20.47;10.10;;;;;;;29.81;36.19;93954.50;6111867;28;109147;-68
2023/07/26 07:13:59;;;;;;;18.10;8.57;;;;;;;29.91;35.13;93953.78;6112046;28;110195;-68
2023/07/26 07:17:02;;;;;;;14.60;7.97;;;;;;;30.03;34.06;93958.78;6109726;28;109217;-67
2023/07/26 07:20:07;;;;;;;13.07;7.90;;;;;;;30.12;33.09;93958.41;6109845;28;109995;-68
2023/07/26 07:23:10;;;;;;;18.03;8.07;;;;;;;30.14;32.49;93954.19;6135798;28;109257;-68
2023/07/26 07:26:13;;;;;;;20.30;8.80;;;;;;;30.27;32.13;93951.13;6134556;28;109946;-68
2023/07/26 07:29:18;;;;;;;15.20;7.83;;;;;;;29.93;33.42;93956.84;6125513;28;109121;-68
2023/07/26 07:32:21;;;;;;;18.90;8.30;;;;;;;30.26;32.04;93955.78;6112450;28;109109;-68
2023/07/26 07:35:24;;;;;;;12.93;7.73;;;;;;;30.35;32.09;93958.06;6111848;28;109686;-68
2023/07/26 07:38:28;;;;;;;15.67;8.00;;;;;;;30.38;31.45;93962.69;6111954;28;110030;-68
2023/07/26 07:41:31;;;;;;;18.10;8.90;;;;;;;30.40;32.68;93963.09;6100823;28;109768;-68
2023/07/26 07:44:36;;;;;;;15.63;8.57;;;;;;;30.45;32.92;93953.84;6111512;28;109109;-68
2023/07/26 07:47:39;;;;;;;14.93;7.77;;;;;;;30.10;34.07;93955.34;6135737;28;109398;-68
2023/07/26 07:50:43;;;;;;;16.53;7.73;;;;;;;29.92;34.29;93962.63;6129661;28;109067;-68
2023/07/26 07:53:48;;;;;;;11.27;7.67;;;;;;;30.10;34.35;93958.81;6106318;28;110118;-68
2023/07/26 07:56:51;;;;;;;17.77;8.80;;;;;;;30.27;33.24;93960.00;6133091;28;109555;-67
2023/07/26 07:59:55;;;;;;;16.37;8.00;;;;;;;30.51;31.19;93952.28;6139297;28;109130;-67
2023/07/26 08:02:59;;;;;;;14.93;8.50;;;;;;;30.50;32.20;93959.63;6119723;28;109354;-68
2023/07/26 08:06:03;;;;;;;19.90;8.00;;;;;;;30.63;31.89;93954.59;6110879;28;109665;-67
2023/07/26 08:09:06;;;;;;;18.90;8.43;;;;;;;30.68;32.04;93962.31;6115481;28;108910;-67
2023/07/26 08:12:09;;;;;;;14.33;8.20;;;;;;;30.43;32.57;93955.00;6115412;28;109395;-67
2023/07/26 08:15:14;;;;;;;14.57;7.40;;;;;;;30.68;31.34;93949.56;6105573;28;111548;-65
2023/07/26 08:18:17;;;;;;;20.27;7.80;;;;;;;30.64;32.40;93950.75;6115280;28;110499;-66
2023/07/26 08:21:20;;;;;;;14.90;7.33;;;;;;;30.41;33.01;93961.91;6114741;28;109156;-66
2023/07/26 08:24:24;;;;;;;13.60;7.67;;;;;;;30.59;32.06;93943.81;6114557;28;109143;-66
2023/07/26 08:27:27;;;;;;;11.67;7.03;;;;;;;30.58;31.99;93957.66;6103090;28;109013;-65
2023/07/26 08:30:32;;;;;;;20.27;13.27;;;;;;;30.51;32.32;93946.88;6115008;28;111221;-66
2023/07/26 08:33:35;;;;;;;21.40;16.07;;;;;;;30.48;32.25;93951.13;6114922;28;110150;-66
2023/07/26 08:36:38;;;;;;;14.80;10.73;;;;;;;30.65;31.42;93944.19;6110244;28;111022;-66
2023/07/26 08:39:41;;;;;;;11.03;7.27;;;;;;;30.76;29.83;93936.88;6109641;28;110202;-66
2023/07/26 08:42:45;;;;;;;14.83;7.00;;;;;;;30.93;30.37;93935.28;6114598;28;109176;-66
2023/07/26 08:45:51;;;;;;;15.77;7.93;;;;;;;30.72;31.15;93942.25;6114449;28;109412;-66
2023/07/26 08:48:57;;;;;;;15.20;7.10;;;;;;;30.90;29.80;93936.81;6104736;28;109021;-65
2023/07/26 08:52:03;;;;;;;19.33;7.40;;;;;;;31.00;30.11;93930.63;6114583;28;110898;-67
2023/07/26 08:55:08;;;;;;;12.73;7.13;;;;;;;30.73;30.83;93932.22;6114622;28;108937;-66
2023/07/26 08:58:11;;;;;;;15.63;7.20;;;;;;;30.68;31.00;93925.25;6113870;28;110178;-66
2023/07/26 09:01:16;;;;;;;16.73;7.40;;;;;;;30.83;31.02;93928.75;6102628;28;109332;-66
2023/07/26 09:04:19;;;;;;;15.07;6.80;;;;;;;30.81;31.17;93933.00;6123976;28;109572;-66
2023/07/26 09:07:23;;;;;;;15.73;7.40;;;;;;;30.91;30.95;93929.47;6138497;28;110126;-66
2023/07/26 09:10:28;;;;;;;13.70;6.27;;;;;;;30.91;30.98;93926.78;6121078;28;110287;-68
2023/07/26 09:13:31;;;;;;;19.27;7.07;;;;;;;30.76;31.57;93939.56;6103358;28;109278;-67
2023/07/26 09:16:35;;;;;;;15.57;7.13;;;;;;;30.72;31.55;93941.47;6113759;28;109389;-67
2023/07/26 09:19:39;;;;;;;14.53;7.60;;;;;;;30.72;31.58;93947.66;6126383;28;110261;-67
2023/07/26 09:22:42;;;;;;;17.50;6.97;;;;;;;30.45;32.49;93948.44;6128762;28;109719;-65
2023/07/26 09:25:46;;;;;;;14.53;7.80;;;;;;;30.46;31.85;93936.47;6136981;28;109286;-63
2023/07/26 09:28:52;;;;;;;14.10;6.20;;;;;;;30.65;31.09;93941.47;6131852;28;109258;-63
2023/07/26 09:31:56;;;;;;;19.50;7.00;;;;;;;30.69;31.31;93944.94;6113565;28;108879;-63
2023/07/26 09:35:05;;;;;;;21.23;7.30;;;;;;;30.52;31.52;93943.03;6117176;28;109382;-63
2023/07/26 09:38:11;;;;;;;24.07;6.60;;;;;;;30.73;28.19;93949.19;6138171;28;110189;-63
2023/07/26 09:41:24;;;;;;;17.90;6.53;;;;;;;30.67;28.77;93949.97;6113628;28;109467;-63
2023/07/26 09:44:27;;;;;;;24.37;6.60;;;;;;;30.54;28.98;93935.31;6113473;28;109458;-63
2023/07/26 09:47:37;;;;;;;20.87;6.60;;;;;;;30.40;28.26;93947.66;6103836;28;110136;-63
2023/07/26 09:50:45;;;;;;;15.07;6.63;;;;;;;30.30;26.78;93942.28;6113631;28;109055;-63
2023/07/26 09:53:55;;;;;;;17.23;6.40;;;;;;;30.41;26.68;93946.53;6113163;28;109190;-63
2023/07/26 09:56:59;;;;;;;10.60;6.00;;;;;;;30.66;27.46;93940.31;6103690;28;109607;-64
2023/07/26 10:00:04;;;;;;;15.47;6.00;;;;;;;30.57;27.53;93934.53;6125288;28;109053;-63
2023/07/26 10:03:11;;;;;;;14.17;6.00;;;;;;;30.51;28.39;93927.97;6125385;28;109549;-64
2023/07/26 10:06:14;;;;;;;15.77;6.27;;;;;;;30.50;28.84;93929.91;6136140;28;110137;-63
2023/07/26 10:09:17;;;;;;;11.07;5.57;;;;;;;30.61;29.08;93932.63;6125728;28;109293;-66
2023/07/26 10:12:25;;;;;;;12.60;6.57;;;;;;;30.52;29.44;93924.91;6117719;28;109231;-63
2023/07/26 10:15:30;;;;;;;15.80;6.57;;;;;;;30.49;28.85;93916.81;6127782;28;109050;-63
2023/07/26 10:18:34;;;;;;;14.90;6.50;;;;;;;30.69;28.95;93896.31;6112986;28;110158;-64
2023/07/26 10:21:39;;;;;;;10.67;5.73;;;;;;;30.71;29.70;93907.50;6102249;28;108965;-63
2023/07/26 10:24:43;;;;;;;13.20;6.03;;;;;;;30.57;29.76;93907.53;6112827;28;109080;-67
2023/07/26 10:27:46;;;;;;;14.10;6.80;;;;;;;30.38;29.98;93914.09;6112793;28;109616;-66
2023/07/26 10:30:51;;;;;;;12.53;7.20;;;;;;;30.41;30.54;93916.81;6103408;28;109470;-64
2023/07/26 10:33:58;;;;;;;15.20;6.90;;;;;;;30.38;30.10;93917.56;6119855;28;111351;-63
2023/07/26 10:37:14;;;;;;;13.30;6.27;;;;;;;30.32;30.45;93919.13;6137131;28;109688;-67
2023/07/26 10:40:32;;;;;;;17.93;6.07;;;;;;;30.37;30.21;93910.63;6117454;28;109056;-69
2023/07/26 10:43:40;;;;;;;18.70;6.80;;;;;;;30.36;30.28;93903.69;6101397;28;109251;-68
2023/07/26 10:46:51;;;;;;;20.00;7.13;;;;;;;30.58;30.73;93919.88;6120199;28;110301;-67
2023/07/26 10:49:59;;;;;;;12.23;6.20;;;;;;;30.68;31.15;93905.59;6136717;28;109944;-68
2023/07/26 10:53:27;;;;;;;11.80;6.13;;;;;;;30.46;30.51;93898.69;6131493;28;109121;-67
2023/07/26 10:56:33;;;;;;;11.63;6.23;;;;;;;30.36;31.17;93900.22;6133406;28;109333;-67
2023/07/26 10:59:50;;;;;;;16.30;6.27;;;;;;;30.47;30.72;93897.53;6136212;28;109075;-67
2023/07/26 11:03:01;;;;;;;11.50;6.30;;;;;;;30.46;31.18;93883.25;6118233;28;109146;-67
2023/07/26 11:06:06;;;;;;;9.30;6.27;;;;;;;30.39;31.36;93878.63;6103016;28;109017;-66
2023/07/26 11:09:19;;;;;;;12.03;6.23;;;;;;;30.31;31.83;93884.41;6136062;28;109082;-66
2023/07/26 11:12:25;;;;;;;12.37;6.00;;;;;;;30.24;31.69;93879.81;6124889;28;109053;-66
2023/07/26 11:15:30;;;;;;;14.70;6.80;;;;;;;30.33;31.29;93890.97;6110743;28;109477;-65
2023/07/26 11:18:53;;;;;;;12.83;6.53;;;;;;;30.43;30.81;93882.09;6106282;28;110508;-68
2023/07/26 11:22:05;;;;;;;14.47;7.03;;;;;;;30.34;31.54;93880.94;6120026;28;110096;-67
2023/07/26 11:25:11;;;;;;;14.67;7.10;;;;;;;30.33;31.30;93879.41;6137974;28;109086;-66
2023/07/26 11:28:15;;;;;;;10.63;6.60;;;;;;;30.51;29.28;93882.06;6129555;28;109312;-66
2023/07/26 11:31:22;;;;;;;13.73;6.13;;;;;;;30.56;29.41;93885.16;6139864;28;109094;-66
2023/07/26 11:34:25;;;;;;;12.53;5.80;;;;;;;30.53;29.27;93868.94;6139055;28;109267;-68
2023/07/26 11:37:29;;;;;;;12.90;6.50;;;;;;;30.59;29.33;93880.91;6128332;28;109396;-67
2023/07/26 11:40:39;;;;;;;12.03;5.87;;;;;;;30.61;29.75;93865.88;6104908;28;109262;-66
2023/07/26 11:43:42;;;;;;;10.50;5.90;;;;;;;30.36;30.29;93868.59;6115875;28;110430;-66
2023/07/26 11:46:45;;;;;;;12.00;6.93;;;;;;;30.28;30.42;93863.59;6115385;28;110101;-68
2023/07/26 11:49:49;;;;;;;13.50;7.40;;;;;;;30.34;31.00;93864.75;6110004;28;109147;-69
2023/07/26 11:53:06;;;;;;;13.23;6.73;;;;;;;30.35;31.52;93879.78;6123960;28;110055;-68
2023/07/26 11:56:09;;;;;;;10.97;6.50;;;;;;;30.38;31.47;93873.59;6139631;28;109416;-69
2023/07/26 11:59:13;;;;;;;16.13;7.87;;;;;;;30.39;31.29;93880.53;6091318;28;109068;-67
2023/07/26 12:02:19;;;;;;;16.07;7.07;;;;;;;30.37;31.68;93872.84;6096481;28;109203;-66
2023/07/26 12:05:25;;;;;;;12.97;6.60;;;;;;;30.34;31.64;93862.81;6138791;28;109230;-68
2023/07/26 12:08:30;;;;;;;11.20;6.57;;;;;;;30.33;31.52;93866.69;6121479;28;110524;-68
2023/07/26 12:11:33;;;;;;;9.70;6.60;;;;;;;30.43;32.23;93876.69;6115494;28;109677;-67
2023/07/26 12:14:38;;;;;;;12.10;6.70;;;;;;;30.43;32.12;93871.31;6104103;28;109171;-68
2023/07/26 12:18:00;;;;;;;13.33;6.80;;;;;;;30.34;32.27;93854.72;6115263;28;110071;-67
2023/07/26 12:21:05;;;;;;;10.20;5.93;;;;;;;30.35;32.27;93858.97;6115320;28;110048;-66
2023/07/26 12:24:16;;;;;;;9.10;5.73;;;;;;;30.51;30.94;93858.53;6132498;28;109251;-67
2023/07/26 12:27:20;;;;;;;12.83;6.27;;;;;;;30.48;31.29;93856.63;6135155;28;110063;-66
2023/07/26 12:30:23;;;;;;;12.17;6.00;;;;;;;30.50;31.46;93851.59;6139248;28;110211;-66
2023/07/26 12:33:26;;;;;;;18.50;6.83;;;;;;;30.54;30.76;93857.75;6122882;28;109938;-68
2023/07/26 12:36:31;;;;;;;13.40;6.50;;;;;;;30.55;30.69;93863.94;6102530;28;110130;-66
2023/07/26 12:39:38;;;;;;;11.47;6.00;;;;;;;30.47;30.85;93843.53;6138730;28;109164;-68
2023/07/26 12:42:41;;;;;;;11.07;7.47;;;;;;;30.41;31.74;93848.53;6138831;28;109223;-67
2023/07/26 12:45:44;;;;;;;12.57;5.50;;;;;;;30.45;31.23;93840.44;6125381;28;109280;-68
2023/07/26 12:48:47;;;;;;;14.67;6.77;;;;;;;30.53;30.97;93837.31;6103354;28;109215;-68
2023/07/26 12:51:51;;;;;;;10.83;6.67;;;;;;;30.57;31.16;93845.41;6114714;28;109620;-69
2023/07/26 12:54:56;;;;;;;10.13;6.10;;;;;;;30.54;31.17;93838.09;6114407;28;109014;-62
2023/07/26 12:57:59;;;;;;;13.37;5.77;;;;;;;30.49;31.12;93841.19;6110311;28;110096;-67
2023/07/26 13:01:02;;;;;;;10.73;6.20;;;;;;;30.43;31.48;93838.13;6109013;28;109762;-66
2023/07/26 13:04:06;;;;;;;12.10;6.77;;;;;;;30.42;31.88;93834.66;6113891;28;111243;-66
2023/07/26 13:07:09;;;;;;;10.77;6.20;;;;;;;30.34;31.83;93832.34;6117017;28;109197;-66
2023/07/26 13:10:14;;;;;;;14.00;6.43;;;;;;;30.29;32.73;93822.72;6129003;28;110222;-66
2023/07/26 13:13:17;;;;;;;12.90;7.03;;;;;;;30.26;32.39;93828.91;6138175;28;109895;-68
2023/07/26 13:16:20;;;;;;;14.60;6.50;;;;;;;30.33;31.86;93828.88;6119339;28;109234;-68
2023/07/26 13:19:24;;;;;;;9.60;6.13;;;;;;;30.29;32.16;93833.53;6135626;28;110069;-68
2023/07/26 13:22:27;;;;;;;11.17;6.50;;;;;;;30.26;32.35;93822.75;6126849;28;109226;-66
2023/07/26 13:25:32;;;;;;;9.87;7.20;;;;;;;30.24;31.90;93823.13;6137962;28;109102;-68
2023/07/26 13:28:35;;;;;;;11.17;6.60;;;;;;;30.25;32.17;93832.75;6137593;28;110122;-66
2023/07/26 13:31:38;;;;;;;11.83;6.63;;;;;;;30.29;32.50;93827.34;6137991;28;110273;-67
2023/07/26 13:34:41;;;;;;;10.77;5.83;;;;;;;30.33;31.98;93823.47;6127318;28;109316;-68
2023/07/26 13:37:44;;;;;;;10.87;6.33;;;;;;;30.37;31.51;93820.78;6129763;28;109148;-66
2023/07/26 13:40:49;;;;;;;8.67;5.60;;;;;;;30.34;32.13;93816.16;6113683;28;109125;-67
2023/07/26 13:43:52;;;;;;;10.93;5.83;;;;;;;30.42;31.88;93804.97;6107524;28;110180;-68
2023/07/26 13:46:55;;;;;;;11.13;6.70;;;;;;;30.40;31.89;93811.88;6111029;28;110393;-67
2023/07/26 13:49:59;;;;;;;10.30;5.80;;;;;;;30.36;32.62;93808.44;6089401;28;109004;-68
2023/07/26 13:53:02;;;;;;;12.50;6.53;;;;;;;30.29;33.03;93814.63;6098221;28;109094;-67
2023/07/26 13:56:06;;;;;;;11.40;6.63;;;;;;;30.29;32.65;93814.63;6103351;28;110072;-67
2023/07/26 13:59:09;;;;;;;9.40;6.20;;;;;;;30.31;32.85;93806.13;6113406;28;109436;-67
2023/07/26 14:02:13;;;;;;;8.20;6.03;;;;;;;30.28;32.97;93794.19;6112860;28;109147;-67
2023/07/26 14:05:16;;;;;;;11.23;5.90;;;;;;;30.29;32.85;93806.53;6113022;28;109239;-65
2023/07/26 14:08:19;;;;;;;12.03;6.70;;;;;;;30.31;32.85;93806.91;6102427;28;109616;-64